createdAt,value
2023-08-31T00:01:40.751Z,90.80
2023-08-31T00:04:16.261Z,88.64
2023-08-31T00:06:43.386Z,89.53
2023-08-31T00:09:10.812Z,87.13
2023-08-31T00:11:38.059Z,86.54
2023-08-31T00:14:05.424Z,85.93
2023-08-31T00:16:32.366Z,85.93
2023-08-31T00:18:59.085Z,85.76
2023-08-31T00:21:26.499Z,86.32
2023-08-31T00:23:53.391Z,86.33
2023-08-31T00:26:20.179Z,86.60
2023-08-31T00:28:47.203Z,86.89
2023-08-31T00:31:14.210Z,86.99
2023-08-31T00:33:40.966Z,86.98
2023-08-31T00:36:07.892Z,86.80
2023-08-31T00:38:34.795Z,86.97
2023-08-31T00:41:01.647Z,86.83
2023-08-31T00:43:29.353Z,86.88
2023-08-31T00:45:59.820Z,87.01
2023-08-31T00:48:26.828Z,87.00
2023-08-31T00:50:53.713Z,87.03
2023-08-31T00:53:21.441Z,87.10
2023-08-31T00:55:48.761Z,87.29
2023-08-31T00:58:15.835Z,87.30
2023-08-31T01:00:56.630Z,87.26
2023-08-31T01:03:38.678Z,87.03
2023-08-31T01:06:33.019Z,87.30
2023-08-31T01:09:34.296Z,87.58
2023-08-31T01:12:19.790Z,87.91
2023-08-31T01:14:58.573Z,87.93
2023-08-31T01:17:27.896Z,87.16
2023-08-31T01:19:56.895Z,87.72
2023-08-31T01:22:33.040Z,87.25
2023-08-31T01:25:06.246Z,87.65
2023-08-31T01:27:33.547Z,87.18
2023-08-31T01:30:00.823Z,87.26
2023-08-31T01:32:28.225Z,87.33
2023-08-31T01:34:55.032Z,87.73
2023-08-31T01:37:53.987Z,87.04
2023-08-31T01:40:29.227Z,87.09
2023-08-31T01:42:56.800Z,86.97
2023-08-31T01:45:24.104Z,87.63
2023-08-31T01:47:51.002Z,87.22
2023-08-31T01:50:18.274Z,87.70
2023-08-31T01:52:45.004Z,87.54
2023-08-31T01:55:12.229Z,87.68
2023-08-31T01:57:39.568Z,87.15
2023-08-31T02:00:07.567Z,87.04
2023-08-31T02:02:34.665Z,86.52
2023-08-31T02:05:03.108Z,86.44
2023-08-31T02:07:29.845Z,86.19
2023-08-31T02:09:56.721Z,86.14
2023-08-31T02:12:23.961Z,86.63
2023-08-31T02:14:51.042Z,86.66
2023-08-31T02:17:17.972Z,86.91
2023-08-31T02:19:44.811Z,87.15
2023-08-31T02:22:11.524Z,86.62
2023-08-31T02:24:41.409Z,86.76
2023-08-31T02:27:08.239Z,86.52
2023-08-31T02:29:35.046Z,87.00
2023-08-31T02:32:05.205Z,87.06
2023-08-31T02:34:32.139Z,87.24
2023-08-31T02:36:58.904Z,87.16
2023-08-31T02:39:25.901Z,87.35
2023-08-31T02:41:53.063Z,87.43
2023-08-31T02:44:20.426Z,87.13
2023-08-31T02:46:47.293Z,87.24
2023-08-31T02:49:14.124Z,87.69
2023-08-31T02:51:40.918Z,87.51
2023-08-31T02:54:07.898Z,87.16
2023-08-31T02:56:34.744Z,86.74
2023-08-31T02:59:01.525Z,86.95
2023-08-31T03:01:28.299Z,87.11
2023-08-31T03:03:55.082Z,87.40
2023-08-31T03:06:22.083Z,87.91
2023-08-31T03:08:49.257Z,87.88
2023-08-31T03:11:16.241Z,87.89
2023-08-31T03:13:43.348Z,88.88
2023-08-31T03:16:10.260Z,89.21
2023-08-31T03:18:37.094Z,90.10
2023-08-31T03:21:04.264Z,90.15
2023-08-31T03:23:31.164Z,90.18
2023-08-31T03:25:58.006Z,90.51
2023-08-31T03:28:25.062Z,90.38
2023-08-31T03:30:58.474Z,90.76
2023-08-31T03:33:25.677Z,91.05
2023-08-31T03:35:52.459Z,90.94
2023-08-31T03:38:19.442Z,91.32
2023-08-31T03:40:56.440Z,89.82
2023-08-31T03:43:23.456Z,89.30
2023-08-31T03:45:50.595Z,88.18
2023-08-31T03:48:17.403Z,87.44
2023-08-31T03:50:44.176Z,86.82
2023-08-31T03:53:11.324Z,86.70
2023-08-31T03:55:38.699Z,86.30
2023-08-31T03:58:05.434Z,86.26
2023-08-31T04:00:32.322Z,86.31
2023-08-31T04:03:02.151Z,86.18
2023-08-31T04:05:29.537Z,86.18
2023-08-31T04:07:56.303Z,85.94
2023-08-31T04:10:23.115Z,86.26
2023-08-31T04:12:49.865Z,86.00
2023-08-31T04:15:16.995Z,86.30
2023-08-31T04:17:44.000Z,86.27
2023-08-31T04:20:12.242Z,86.45
2023-08-31T04:22:39.532Z,86.62
2023-08-31T04:25:07.248Z,86.37
2023-08-31T04:27:34.069Z,86.38
2023-08-31T04:30:03.581Z,86.56
2023-08-31T04:32:31.001Z,86.16
2023-08-31T04:34:57.856Z,86.25
2023-08-31T04:37:24.676Z,86.32
2023-08-31T04:39:51.546Z,85.98
2023-08-31T04:42:18.500Z,85.99
2023-08-31T04:44:45.380Z,86.16
2023-08-31T04:47:12.691Z,85.98
2023-08-31T04:49:39.422Z,86.22
2023-08-31T04:52:07.015Z,86.43
2023-08-31T04:54:33.979Z,86.29
2023-08-31T04:57:00.770Z,86.31
2023-08-31T04:59:28.520Z,86.57
2023-08-31T05:01:56.080Z,86.21
2023-08-31T05:04:24.670Z,86.90
2023-08-31T05:06:51.477Z,86.92
2023-08-31T05:09:19.879Z,86.84
2023-08-31T05:11:47.011Z,87.33
2023-08-31T05:14:13.838Z,87.45
2023-08-31T05:16:40.649Z,87.87
2023-08-31T05:19:07.593Z,87.69
2023-08-31T05:21:34.547Z,87.88
2023-08-31T05:24:01.405Z,87.93
2023-08-31T05:26:28.195Z,87.82
2023-08-31T05:28:54.947Z,88.20
2023-08-31T05:31:21.782Z,88.23
2023-08-31T05:33:49.289Z,88.49
2023-08-31T05:36:16.100Z,88.57
2023-08-31T05:38:43.209Z,88.60
2023-08-31T05:41:10.917Z,88.20
2023-08-31T05:43:41.587Z,88.61
2023-08-31T05:46:09.978Z,88.73
2023-08-31T05:48:37.704Z,88.95
2023-08-31T05:51:07.893Z,88.78
2023-08-31T05:53:35.133Z,88.81
2023-08-31T05:56:05.781Z,88.94
2023-08-31T05:58:36.906Z,88.49
2023-08-31T06:01:04.971Z,88.47
2023-08-31T06:03:33.161Z,88.57
2023-08-31T06:06:00.941Z,88.71
2023-08-31T06:08:27.779Z,88.32
2023-08-31T06:10:54.885Z,88.28
2023-08-31T06:13:21.886Z,88.12
2023-08-31T06:15:48.997Z,88.09
2023-08-31T06:18:15.802Z,87.34
2023-08-31T06:20:43.050Z,87.25
2023-08-31T06:23:12.029Z,87.23
2023-08-31T06:25:39.128Z,87.01
2023-08-31T06:28:09.824Z,86.87
2023-08-31T06:33:40.428Z,87.04
2023-08-31T06:36:07.265Z,86.72
2023-08-31T06:38:34.827Z,86.56
2023-08-31T06:41:03.639Z,86.59
2023-08-31T06:43:30.506Z,86.33
2023-08-31T06:46:02.072Z,86.14
2023-08-31T06:48:34.717Z,86.17
2023-08-31T06:51:01.581Z,86.03
2023-08-31T06:53:28.405Z,85.74
2023-08-31T06:55:55.216Z,85.78
2023-08-31T06:58:22.057Z,85.40
2023-08-31T07:00:49.410Z,84.97
2023-08-31T07:03:16.811Z,85.13
2023-08-31T07:05:45.025Z,84.80
2023-08-31T07:08:11.998Z,84.64
2023-08-31T07:10:38.888Z,84.59
2023-08-31T07:13:06.232Z,84.39
2023-08-31T07:15:33.448Z,84.35
2023-08-31T07:18:00.341Z,83.76
2023-08-31T07:20:27.243Z,83.84
2023-08-31T07:22:54.008Z,82.65
2023-08-31T07:25:20.902Z,82.19
2023-08-31T07:27:48.179Z,82.15
2023-08-31T07:30:14.988Z,81.73
2023-08-31T07:32:41.948Z,79.14
2023-08-31T07:35:09.358Z,77.99
2023-08-31T07:37:38.441Z,78.76
2023-08-31T07:40:10.371Z,79.55
2023-08-31T07:42:37.111Z,79.86
2023-08-31T07:45:04.201Z,79.76
2023-08-31T07:47:32.421Z,78.30
2023-08-31T07:49:59.825Z,76.86
2023-08-31T07:52:26.552Z,76.18
2023-08-31T07:54:53.443Z,75.64
2023-08-31T07:57:20.492Z,75.20
2023-08-31T07:59:47.491Z,74.54
2023-08-31T08:02:14.422Z,74.73
2023-08-31T08:04:41.643Z,73.92
2023-08-31T08:07:08.960Z,73.21
2023-08-31T08:09:37.042Z,72.15
2023-08-31T08:12:04.646Z,72.39
2023-08-31T08:14:31.297Z,74.22
2023-08-31T08:16:58.086Z,76.53
2023-08-31T08:19:25.484Z,77.21
2023-08-31T08:21:52.716Z,76.84
2023-08-31T08:24:19.646Z,76.49
2023-08-31T08:26:46.458Z,76.66
2023-08-31T08:29:13.431Z,76.84
2023-08-31T08:31:40.275Z,76.44
2023-08-31T08:34:07.309Z,76.54
2023-08-31T08:36:34.335Z,76.43
2023-08-31T08:39:01.211Z,76.61
2023-08-31T08:41:30.536Z,76.60
2023-08-31T08:44:02.945Z,76.29
2023-08-31T08:46:30.603Z,76.29
2023-08-31T08:48:59.155Z,73.55
2023-08-31T08:51:26.393Z,71.76
2023-08-31T08:53:54.056Z,70.50
2023-08-31T08:56:20.925Z,69.15
2023-08-31T08:58:47.647Z,68.79
2023-08-31T09:01:14.445Z,67.91
2023-08-31T09:03:41.435Z,68.28
2023-08-31T09:06:09.475Z,68.35
2023-08-31T09:08:38.450Z,66.47
2023-08-31T09:11:06.235Z,66.55
2023-08-31T09:13:34.848Z,65.09
2023-08-31T09:16:01.707Z,64.77
2023-08-31T09:18:31.071Z,65.90
2023-08-31T09:20:58.535Z,64.66
2023-08-31T09:23:25.995Z,65.84
2023-08-31T09:25:55.081Z,66.02
2023-08-31T09:28:24.218Z,67.00
2023-08-31T09:30:53.404Z,65.11
2023-08-31T09:33:22.136Z,64.43
2023-08-31T09:35:53.871Z,63.80
2023-08-31T09:38:20.881Z,63.27
2023-08-31T09:40:47.976Z,62.48
2023-08-31T09:43:22.673Z,62.21
2023-08-31T09:45:50.431Z,64.43
2023-08-31T09:48:17.973Z,64.55
2023-08-31T09:50:46.176Z,65.09
2023-08-31T09:53:14.068Z,65.00
2023-08-31T09:55:41.712Z,64.81
2023-08-31T09:58:16.166Z,65.95
2023-08-31T10:00:44.593Z,65.13
2023-08-31T10:03:18.681Z,65.09
2023-08-31T10:05:49.514Z,65.91
2023-08-31T10:08:17.214Z,65.81
2023-08-31T10:10:45.310Z,64.46
2023-08-31T10:13:13.263Z,64.25
2023-08-31T10:15:41.066Z,63.73
2023-08-31T10:18:08.542Z,63.50
2023-08-31T10:20:36.181Z,63.63
2023-08-31T10:23:08.342Z,64.28
2023-08-31T10:25:47.218Z,64.16
2023-08-31T10:28:22.089Z,64.64
2023-08-31T10:31:04.907Z,65.74
2023-08-31T10:33:46.285Z,65.94
2023-08-31T10:36:18.173Z,65.85
2023-08-31T10:38:57.976Z,65.20
2023-08-31T10:41:26.021Z,65.61
2023-08-31T10:43:59.235Z,65.67
2023-08-31T10:46:26.630Z,65.33
2023-08-31T10:49:00.304Z,65.87
2023-08-31T10:51:29.394Z,64.91
2023-08-31T10:54:08.968Z,65.42
2023-08-31T10:57:09.830Z,65.88
2023-08-31T10:59:47.386Z,66.20
2023-08-31T11:02:35.351Z,66.39
2023-08-31T11:05:09.729Z,64.19
2023-08-31T11:07:38.135Z,62.05
2023-08-31T11:10:12.156Z,63.14
2023-08-31T11:12:43.296Z,63.92
2023-08-31T11:15:14.516Z,63.95
2023-08-31T11:17:42.385Z,63.78
2023-08-31T11:20:15.812Z,63.62
2023-08-31T11:22:44.658Z,63.00
2023-08-31T11:25:14.792Z,60.85
2023-08-31T11:27:41.806Z,61.09
2023-08-31T11:30:18.709Z,59.84
2023-08-31T11:32:47.653Z,61.12
2023-08-31T11:35:16.588Z,60.47
2023-08-31T11:37:46.220Z,58.97
2023-08-31T11:40:16.263Z,58.56
2023-08-31T11:42:43.447Z,58.04
2023-08-31T11:45:13.838Z,57.04
2023-08-31T11:47:41.769Z,56.99
2023-08-31T11:50:09.363Z,57.15
2023-08-31T11:52:36.330Z,59.07
2023-08-31T11:55:04.697Z,60.38
2023-08-31T11:57:31.512Z,61.03
2023-08-31T11:59:58.310Z,60.66
2023-08-31T12:02:25.086Z,59.36
2023-08-31T12:04:52.534Z,58.61
2023-08-31T12:07:20.306Z,59.44
2023-08-31T12:09:47.712Z,61.39
2023-08-31T12:12:22.919Z,61.55
2023-08-31T12:14:54.223Z,60.93
2023-08-31T12:17:21.155Z,60.38
2023-08-31T12:19:48.000Z,58.74
2023-08-31T12:22:17.163Z,58.81
2023-08-31T12:24:44.034Z,59.33
2023-08-31T12:27:12.359Z,58.69
2023-08-31T12:29:39.212Z,59.21
2023-08-31T12:32:06.520Z,57.91
2023-08-31T12:34:33.579Z,58.45
2023-08-31T12:37:01.949Z,60.52
2023-08-31T12:39:28.833Z,62.77
2023-08-31T12:42:00.620Z,63.75
2023-08-31T12:44:32.754Z,66.24
2023-08-31T12:46:59.556Z,67.81
2023-08-31T12:49:26.605Z,68.29
2023-08-31T12:51:53.441Z,66.83
2023-08-31T12:54:20.712Z,63.04
2023-08-31T12:56:47.597Z,60.87
2023-08-31T12:59:14.507Z,60.16
2023-08-31T13:01:41.255Z,60.34
2023-08-31T13:04:08.040Z,61.04
2023-08-31T13:06:34.823Z,61.75
2023-08-31T13:09:01.649Z,62.82
2023-08-31T13:11:28.563Z,63.16
2023-08-31T13:13:57.159Z,63.34
2023-08-31T13:16:25.953Z,63.35
2023-08-31T13:18:52.957Z,63.65
2023-08-31T13:21:19.856Z,61.65
2023-08-31T13:23:46.859Z,60.89
2023-08-31T13:26:13.859Z,61.56
2023-08-31T13:28:42.391Z,62.94
2023-08-31T13:31:09.170Z,63.70
2023-08-31T13:33:36.024Z,64.54
2023-08-31T13:36:02.980Z,64.38
2023-08-31T13:38:29.746Z,65.00
2023-08-31T13:41:00.425Z,67.86
2023-08-31T13:43:27.281Z,69.23
2023-08-31T13:45:54.221Z,69.69
2023-08-31T13:48:21.878Z,67.88
2023-08-31T13:50:48.644Z,65.71
2023-08-31T13:53:15.863Z,62.98
2023-08-31T13:55:42.594Z,60.90
2023-08-31T13:58:09.720Z,59.74
2023-08-31T14:00:37.347Z,59.00
2023-08-31T14:03:06.072Z,58.19
2023-08-31T14:05:33.694Z,57.40
2023-08-31T14:08:02.774Z,56.66
2023-08-31T14:10:29.602Z,57.04
2023-08-31T14:12:56.430Z,55.88
2023-08-31T14:15:23.241Z,56.95
2023-08-31T14:17:54.519Z,56.40
2023-08-31T14:20:21.645Z,56.46
2023-08-31T14:22:48.511Z,56.91
2023-08-31T14:25:16.220Z,57.52
2023-08-31T14:27:43.325Z,60.04
2023-08-31T14:30:10.757Z,58.89
2023-08-31T14:32:37.545Z,58.25
2023-08-31T14:35:06.682Z,56.92
2023-08-31T14:37:33.616Z,56.90
2023-08-31T14:40:00.447Z,55.77
2023-08-31T14:42:27.411Z,54.88
2023-08-31T14:44:54.361Z,55.82
2023-08-31T14:47:21.200Z,57.29
2023-08-31T14:49:48.021Z,56.71
2023-08-31T14:52:14.934Z,57.69
2023-08-31T14:54:41.700Z,58.23
2023-08-31T14:57:08.675Z,59.08
2023-08-31T14:59:35.520Z,59.79
2023-08-31T15:02:06.577Z,58.99
2023-08-31T15:04:33.871Z,58.20
2023-08-31T15:07:00.898Z,59.52
2023-08-31T15:09:28.161Z,60.04
2023-08-31T15:11:54.987Z,60.77
2023-08-31T15:14:21.784Z,60.80
2023-08-31T15:16:48.750Z,61.02
2023-08-31T15:19:15.777Z,61.37
2023-08-31T15:21:42.581Z,62.02
2023-08-31T15:24:09.526Z,61.45
2023-08-31T15:26:36.287Z,61.68
2023-08-31T15:29:05.486Z,60.60
2023-08-31T15:31:32.496Z,60.79
2023-08-31T15:33:59.294Z,61.30
2023-08-31T15:36:26.104Z,61.66
2023-08-31T15:38:52.941Z,61.59
2023-08-31T15:41:20.138Z,61.27
2023-08-31T15:43:47.449Z,61.32
2023-08-31T15:46:15.226Z,61.84
2023-08-31T15:48:42.148Z,61.83
2023-08-31T15:51:08.987Z,62.43
2023-08-31T15:53:35.882Z,62.74
2023-08-31T15:56:02.850Z,62.04
2023-08-31T15:58:31.525Z,60.99
2023-08-31T16:01:05.843Z,59.37
2023-08-31T16:03:33.861Z,58.78
2023-08-31T16:06:01.479Z,58.75
2023-08-31T16:08:29.090Z,57.22
2023-08-31T16:10:56.127Z,57.89
2023-08-31T16:13:23.082Z,57.61
2023-08-31T16:15:50.821Z,58.20
2023-08-31T16:18:18.478Z,57.97
2023-08-31T16:20:45.383Z,58.99
2023-08-31T16:23:13.055Z,58.75
2023-08-31T16:25:40.054Z,58.74
2023-08-31T16:28:07.140Z,58.73
2023-08-31T16:30:34.102Z,59.02
2023-08-31T16:33:01.115Z,59.47
2023-08-31T16:35:30.060Z,59.44
2023-08-31T16:37:57.026Z,59.67
2023-08-31T16:40:23.772Z,60.17
2023-08-31T16:42:50.861Z,60.73
2023-08-31T16:45:18.097Z,60.74
2023-08-31T16:47:45.127Z,61.47
2023-08-31T16:50:13.060Z,61.85
2023-08-31T16:52:39.873Z,62.30
2023-08-31T16:55:07.343Z,62.66
2023-08-31T16:57:34.409Z,63.06
2023-08-31T17:00:01.167Z,63.26
2023-08-31T17:02:28.174Z,63.25
2023-08-31T17:04:56.245Z,63.79
2023-08-31T17:07:23.122Z,63.89
2023-08-31T17:09:49.875Z,63.75
2023-08-31T17:12:17.462Z,63.88
2023-08-31T17:14:46.719Z,63.80
2023-08-31T17:17:14.782Z,63.26
2023-08-31T17:19:41.730Z,63.14
2023-08-31T17:22:08.531Z,63.38
2023-08-31T17:24:35.684Z,63.63
2023-08-31T17:27:02.405Z,63.91
2023-08-31T17:29:29.379Z,64.38
2023-08-31T17:31:56.221Z,64.67
2023-08-31T17:34:23.968Z,65.39
2023-08-31T17:36:50.703Z,65.42
2023-08-31T17:39:17.553Z,65.61
2023-08-31T17:41:44.498Z,66.07
2023-08-31T17:44:12.682Z,66.26
2023-08-31T17:46:39.502Z,66.06
2023-08-31T17:49:06.263Z,66.09
2023-08-31T17:51:33.023Z,65.71
2023-08-31T17:58:44.398Z,66.77
2023-08-31T18:01:11.157Z,66.69
2023-08-31T18:03:37.996Z,66.71
2023-08-31T18:06:06.051Z,67.24
2023-08-31T18:08:33.007Z,67.57
2023-08-31T18:11:00.902Z,67.38
2023-08-31T18:13:27.900Z,67.78
2023-08-31T18:15:56.338Z,67.77
2023-08-31T18:18:23.629Z,67.93
2023-08-31T18:20:50.754Z,68.17
2023-08-31T18:23:18.101Z,68.55
2023-08-31T18:25:48.631Z,68.26
2023-08-31T18:28:15.871Z,68.61
2023-08-31T18:30:51.438Z,68.52
2023-08-31T18:33:21.361Z,68.90
2023-08-31T18:35:52.756Z,69.43
2023-08-31T18:38:24.547Z,69.36
2023-08-31T18:40:53.126Z,69.44
2023-08-31T18:43:20.917Z,69.78
2023-08-31T18:45:48.656Z,70.18
2023-08-31T18:48:16.826Z,70.24
2023-08-31T18:50:44.451Z,70.44
2023-08-31T18:53:11.565Z,70.97
2023-08-31T18:55:38.474Z,70.57
2023-08-31T18:58:06.140Z,70.88
2023-08-31T19:00:33.255Z,70.38
2023-08-31T19:03:00.205Z,69.66
2023-08-31T19:05:27.932Z,70.12
2023-08-31T19:07:54.742Z,70.51
2023-08-31T19:10:23.140Z,70.47
2023-08-31T19:12:50.752Z,70.75
2023-08-31T19:15:20.942Z,70.86
2023-08-31T19:17:47.874Z,71.02
2023-08-31T19:20:18.081Z,70.98
2023-08-31T19:22:48.014Z,70.94
2023-08-31T19:25:17.178Z,70.92
2023-08-31T19:27:44.012Z,71.03
2023-08-31T19:30:11.601Z,71.02
2023-08-31T19:32:38.454Z,71.13
2023-08-31T19:35:19.431Z,70.89
2023-08-31T19:37:55.002Z,70.94
2023-08-31T19:40:22.548Z,71.07
2023-08-31T19:42:50.819Z,71.26
2023-08-31T19:45:24.258Z,71.29
2023-08-31T19:47:52.873Z,70.93
2023-08-31T19:50:23.849Z,71.25
2023-08-31T19:52:51.783Z,71.22
2023-08-31T19:55:18.822Z,71.28
2023-08-31T19:57:45.732Z,71.43
2023-08-31T20:00:12.925Z,71.11
2023-08-31T20:02:39.745Z,71.28
2023-08-31T20:05:07.181Z,71.51
2023-08-31T20:07:34.163Z,71.46
2023-08-31T20:10:01.141Z,71.46
2023-08-31T20:12:27.948Z,71.28
2023-08-31T20:14:54.841Z,71.02
2023-08-31T20:17:21.881Z,71.41
2023-08-31T20:19:48.828Z,71.25
2023-08-31T20:22:15.597Z,71.21
2023-08-31T20:24:42.335Z,71.47
2023-08-31T20:27:09.142Z,71.34
2023-08-31T20:29:35.973Z,71.30
2023-08-31T20:32:05.661Z,71.89
2023-08-31T20:34:32.747Z,72.10
2023-08-31T20:37:03.906Z,71.97
2023-08-31T20:39:33.611Z,71.67
2023-08-31T20:42:05.139Z,71.79
2023-08-31T20:44:36.557Z,71.66
2023-08-31T20:47:05.461Z,71.71
2023-08-31T20:49:32.314Z,72.07
2023-08-31T20:51:59.084Z,72.37
2023-08-31T20:54:27.599Z,72.69
2023-08-31T20:56:54.407Z,72.84
2023-08-31T20:59:21.168Z,72.82
2023-08-31T21:01:47.935Z,73.22
2023-08-31T21:04:15.178Z,73.07
2023-08-31T21:06:46.111Z,73.03
2023-08-31T21:09:12.960Z,73.47
2023-08-31T21:11:39.741Z,73.82
2023-08-31T21:14:06.585Z,73.56
2023-08-31T21:16:34.018Z,73.93
2023-08-31T21:19:02.499Z,73.86
2023-08-31T21:21:29.340Z,73.89
2023-08-31T21:23:58.984Z,74.28
2023-08-31T21:26:26.078Z,74.37
2023-08-31T21:28:52.847Z,75.54
2023-08-31T21:31:19.676Z,77.70
2023-08-31T21:33:46.574Z,78.62
2023-08-31T21:36:13.361Z,79.77
2023-08-31T21:38:40.040Z,79.84
2023-08-31T21:41:07.321Z,80.27
2023-08-31T21:43:34.825Z,80.88
2023-08-31T21:46:02.477Z,81.41
2023-08-31T21:48:29.356Z,82.09
2023-08-31T21:50:56.834Z,82.64
2023-08-31T21:53:25.284Z,82.72
2023-08-31T21:55:52.362Z,83.05
2023-08-31T21:58:19.124Z,82.93
2023-08-31T22:00:45.823Z,83.48
2023-08-31T22:03:12.692Z,83.81
2023-08-31T22:05:40.933Z,84.04
2023-08-31T22:08:07.919Z,84.52
2023-08-31T22:10:35.240Z,84.73
2023-08-31T22:13:02.064Z,84.50
2023-08-31T22:15:29.297Z,84.47
2023-08-31T22:17:57.390Z,84.63
2023-08-31T22:20:26.050Z,84.59
2023-08-31T22:22:56.730Z,84.64
2023-08-31T22:25:24.818Z,85.04
2023-08-31T22:27:53.180Z,85.61
2023-08-31T22:30:20.643Z,85.92
2023-08-31T22:32:47.843Z,85.72
2023-08-31T22:35:15.622Z,85.38
2023-08-31T22:37:44.015Z,85.61
2023-08-31T22:40:12.102Z,85.96
2023-08-31T22:42:39.651Z,86.01
2023-08-31T22:45:07.994Z,86.30
2023-08-31T22:47:36.559Z,86.55
2023-08-31T22:50:05.662Z,86.57
2023-08-31T22:52:33.658Z,86.09
2023-08-31T22:55:00.888Z,86.10
2023-08-31T22:57:27.799Z,85.80
2023-08-31T22:59:55.152Z,85.92
2023-08-31T23:02:22.003Z,85.73
2023-08-31T23:04:50.180Z,85.13
2023-08-31T23:07:17.116Z,84.91
2023-08-31T23:09:44.169Z,84.86
2023-08-31T23:12:11.099Z,84.79
2023-08-31T23:14:37.958Z,85.13
2023-08-31T23:17:04.980Z,84.57
2023-08-31T23:19:32.151Z,84.56
2023-08-31T23:21:58.997Z,84.45
2023-08-31T23:24:25.734Z,84.23
2023-08-31T23:26:52.457Z,84.61
2023-08-31T23:29:19.340Z,84.58
2023-08-31T23:31:46.386Z,84.43
2023-08-31T23:34:13.315Z,84.21
2023-08-31T23:36:40.349Z,84.54
2023-08-31T23:39:10.311Z,84.34
2023-08-31T23:41:38.304Z,84.25
2023-08-31T23:44:05.773Z,84.13
2023-08-31T23:46:32.710Z,84.29
2023-08-31T23:48:59.812Z,84.45
2023-08-31T23:51:29.623Z,84.00
2023-08-31T23:53:56.806Z,84.09
2023-08-31T23:56:24.209Z,83.92
